Time;durP1;ratioP1;P1;durP2;ratioP2;P2;SDS_P1;SDS_P2;PMS_P1;PMS_P2;Temp;Humidity;BMP_temperature;BMP_pressure;BME280_temperature;BME280_humidity;BME280_pressure;Samples;Min_cycle;Max_cycle;Signal;HPM_P1;HPM_P2
2022/06/23 00:00:30;;;;;;;14.18;7.35;;;;;;;;;;5011509;28;20300;-67
2022/06/23 00:02:56;;;;;;;14.07;7.72;;;;;;;;;;5003136;28;20240;-66
2022/06/23 00:05:23;;;;;;;13.82;7.57;;;;;;;;;;4999905;28;20223;-66
2022/06/23 00:07:55;;;;;;;16.33;8.52;;;;;;;;;;5002770;28;20638;-67
2022/06/23 00:10:23;;;;;;;16.10;8.02;;;;;;;;;;5013914;28;20248;-66
2022/06/23 00:12:48;;;;;;;13.43;7.82;;;;;;;;;;5007060;28;20216;-67
2022/06/23 00:15:25;;;;;;;16.35;7.97;;;;;;;;;;4990831;28;20213;-66
2022/06/23 00:17:54;;;;;;;14.23;7.95;;;;;;;;;;5023512;28;20247;-67
2022/06/23 00:20:23;;;;;;;14.32;7.80;;;;;;;;;;5005938;28;20213;-66
2022/06/23 00:22:50;;;;;;;13.85;7.78;;;;;;;;;;5006434;28;20232;-67
2022/06/23 00:25:27;;;;;;;13.18;8.40;;;;;;;;;;4991959;28;20205;-66
2022/06/23 00:27:53;;;;;;;12.50;7.95;;;;;;;;;;5011131;28;20213;-67
2022/06/23 00:30:20;;;;;;;17.52;8.00;;;;;;;;;;4992418;28;20209;-67
2022/06/23 00:32:46;;;;;;;14.98;7.43;;;;;;;;;;5006380;28;20267;-66
2022/06/23 00:35:11;;;;;;;15.68;8.27;;;;;;;;;;4991605;28;20205;-66
2022/06/23 00:37:37;;;;;;;14.93;7.90;;;;;;;;;;5006839;28;20270;-66
2022/06/23 00:40:06;;;;;;;14.98;8.75;;;;;;;;;;5001594;28;20283;-66
2022/06/23 00:42:33;;;;;;;12.73;8.52;;;;;;;;;;5016623;28;20248;-67
2022/06/23 00:45:00;;;;;;;17.10;8.65;;;;;;;;;;5007521;28;20224;-67
2022/06/23 00:47:28;;;;;;;13.65;8.15;;;;;;;;;;5008028;28;20216;-67
2022/06/23 00:49:57;;;;;;;14.45;8.20;;;;;;;;;;5004780;28;20282;-67
2022/06/23 00:52:25;;;;;;;16.25;8.65;;;;;;;;;;5016568;28;20221;-66
2022/06/23 00:54:52;;;;;;;15.43;8.43;;;;;;;;;;5007951;28;20212;-66
2022/06/23 00:57:17;;;;;;;14.60;8.75;;;;;;;;;;5006695;28;20250;-66
2022/06/23 00:59:43;;;;;;;17.48;9.07;;;;;;;;;;4995712;28;20244;-66
2022/06/23 01:02:16;;;;;;;14.43;9.00;;;;;;;;;;5000207;28;20264;-65
2022/06/23 01:04:47;;;;;;;12.65;8.88;;;;;;;;;;4994175;28;20319;-66
2022/06/23 01:07:21;;;;;;;17.92;9.35;;;;;;;;;;5000949;28;20239;-66
2022/06/23 01:09:58;;;;;;;14.98;9.05;;;;;;;;;;4978828;28;20212;-66
2022/06/23 01:12:24;;;;;;;15.18;9.60;;;;;;;;;;4997987;28;20227;-65
2022/06/23 01:14:50;;;;;;;18.23;9.13;;;;;;;;;;4974614;28;20213;-66
2022/06/23 01:17:17;;;;;;;17.75;9.70;;;;;;;;;;4996226;28;20257;-65
2022/06/23 01:19:46;;;;;;;18.60;9.80;;;;;;;;;;5000318;28;20680;-65
2022/06/23 01:22:16;;;;;;;16.30;9.95;;;;;;;;;;4999064;28;20256;-65
2022/06/23 01:24:45;;;;;;;18.23;10.65;;;;;;;;;;5012886;28;20674;-65
2022/06/23 01:27:17;;;;;;;13.60;9.55;;;;;;;;;;5005046;28;20208;-65
2022/06/23 01:29:44;;;;;;;20.73;10.63;;;;;;;;;;4991493;28;20569;-66
2022/06/23 01:32:20;;;;;;;15.05;9.80;;;;;;;;;;4994988;28;20240;-66
2022/06/23 01:34:48;;;;;;;18.77;10.10;;;;;;;;;;4978924;28;20692;-65
2022/06/23 01:37:32;;;;;;;16.67;9.98;;;;;;;;;;5011545;28;20216;-65
2022/06/23 01:40:05;;;;;;;15.48;10.55;;;;;;;;;;4983682;28;20228;-65
2022/06/23 01:42:39;;;;;;;18.55;10.23;;;;;;;;;;5003978;28;20251;-65
2022/06/23 01:45:06;;;;;;;19.55;10.27;;;;;;;;;;5002288;28;20551;-64
2022/06/23 01:47:34;;;;;;;17.50;10.15;;;;;;;;;;4999537;28;20242;-65
2022/06/23 01:50:25;;;;;;;15.18;10.90;;;;;;;;;;5000782;28;20231;-65
2022/06/23 01:53:02;;;;;;;14.27;9.68;;;;;;;;;;4993322;28;20254;-65
2022/06/23 01:55:28;;;;;;;18.75;10.93;;;;;;;;;;4987893;28;20212;-64
2022/06/23 01:57:55;;;;;;;15.75;8.88;;;;;;;;;;4977397;28;20216;-65
2022/06/23 02:00:20;;;;;;;14.95;9.25;;;;;;;;;;4976824;28;20221;-65
2022/06/23 02:02:48;;;;;;;16.92;10.40;;;;;;;;;;5000449;28;20237;-65
2022/06/23 02:05:32;;;;;;;16.27;9.65;;;;;;;;;;5004112;28;20625;-64
2022/06/23 02:07:58;;;;;;;17.75;10.00;;;;;;;;;;5000090;28;20247;-64
2022/06/23 02:10:27;;;;;;;16.95;9.98;;;;;;;;;;4985092;28;20236;-65
2022/06/23 02:12:53;;;;;;;16.95;9.73;;;;;;;;;;5000240;28;20216;-65
2022/06/23 02:15:22;;;;;;;17.95;9.82;;;;;;;;;;5002509;28;20252;-65
2022/06/23 02:17:49;;;;;;;14.88;9.60;;;;;;;;;;5004978;28;20209;-65
2022/06/23 02:20:26;;;;;;;16.52;10.48;;;;;;;;;;4994324;28;20635;-65
2022/06/23 02:22:57;;;;;;;18.92;10.30;;;;;;;;;;4985983;28;20300;-65
2022/06/23 02:25:25;;;;;;;16.45;9.27;;;;;;;;;;5006807;28;20250;-65
2022/06/23 02:28:09;;;;;;;17.27;9.63;;;;;;;;;;5017077;28;20204;-65
2022/06/23 02:30:36;;;;;;;17.55;9.23;;;;;;;;;;4984703;28;20212;-65
2022/06/23 02:33:02;;;;;;;15.18;9.30;;;;;;;;;;4994081;28;20549;-63
2022/06/23 02:35:30;;;;;;;16.20;9.32;;;;;;;;;;4983534;28;20209;-65
2022/06/23 02:37:58;;;;;;;17.83;9.27;;;;;;;;;;5016508;28;20216;-65
2022/06/23 02:40:27;;;;;;;12.88;9.52;;;;;;;;;;4995448;28;20622;-64
2022/06/23 02:42:54;;;;;;;12.85;8.60;;;;;;;;;;4994821;28;20247;-65
2022/06/23 02:45:19;;;;;;;15.25;9.50;;;;;;;;;;4977337;28;20249;-66
2022/06/23 02:47:47;;;;;;;15.70;8.93;;;;;;;;;;4981686;28;20261;-65
2022/06/23 02:50:20;;;;;;;16.58;8.93;;;;;;;;;;4985441;28;20217;-63
2022/06/23 02:52:55;;;;;;;13.38;9.20;;;;;;;;;;5009385;28;20209;-64
2022/06/23 02:55:29;;;;;;;15.93;9.18;;;;;;;;;;5006746;28;20244;-63
2022/06/23 02:57:58;;;;;;;14.77;8.88;;;;;;;;;;4984170;28;20667;-64
2022/06/23 03:00:30;;;;;;;14.20;9.10;;;;;;;;;;4984864;28;20705;-63
2022/06/23 03:02:55;;;;;;;15.07;8.70;;;;;;;;;;4982246;28;20231;-63
2022/06/23 03:05:21;;;;;;;15.80;9.32;;;;;;;;;;4976022;28;20209;-63
2022/06/23 03:07:49;;;;;;;16.05;9.63;;;;;;;;;;4976321;28;20209;-63
2022/06/23 03:10:17;;;;;;;14.23;9.13;;;;;;;;;;4982538;28;21087;-63
2022/06/23 03:12:46;;;;;;;15.63;8.98;;;;;;;;;;5009758;28;20252;-62
2022/06/23 03:15:14;;;;;;;16.05;9.38;;;;;;;;;;5017459;28;20220;-62
2022/06/23 03:17:40;;;;;;;16.45;9.00;;;;;;;;;;5001881;28;20269;-63
2022/06/23 03:20:10;;;;;;;14.80;9.02;;;;;;;;;;5002385;28;20225;-62
2022/06/23 03:22:38;;;;;;;16.83;9.10;;;;;;;;;;5011003;28;20232;-63
2022/06/23 03:25:05;;;;;;;14.40;9.32;;;;;;;;;;4988757;28;20300;-63
2022/06/23 03:27:32;;;;;;;14.55;8.88;;;;;;;;;;4986832;28;20452;-63
2022/06/23 03:29:59;;;;;;;19.13;9.82;;;;;;;;;;4995493;28;20227;-66
2022/06/23 03:32:27;;;;;;;15.18;10.25;;;;;;;;;;4991870;28;20201;-65
2022/06/23 03:34:55;;;;;;;13.98;9.00;;;;;;;;;;4984222;28;20223;-65
2022/06/23 03:37:22;;;;;;;16.35;10.00;;;;;;;;;;5013780;28;20221;-65
2022/06/23 03:42:34;;;;;;;14.35;8.85;;;;;;;;;;4995205;28;20232;-66
2022/06/23 03:45:06;;;;;;;14.07;9.40;;;;;;;;;;4983461;28;20252;-65
2022/06/23 03:47:35;;;;;;;15.98;9.02;;;;;;;;;;4999407;28;20296;-67
2022/06/23 03:50:02;;;;;;;13.65;8.63;;;;;;;;;;4985718;28;20217;-63
2022/06/23 03:52:33;;;;;;;18.05;8.95;;;;;;;;;;4974014;28;20229;-65
2022/06/23 03:54:59;;;;;;;13.00;9.43;;;;;;;;;;4989882;28;20222;-66
2022/06/23 03:57:27;;;;;;;15.75;8.75;;;;;;;;;;5002296;28;20709;-65
2022/06/23 04:00:06;;;;;;;15.90;9.50;;;;;;;;;;5001478;28;20216;-65
2022/06/23 04:02:40;;;;;;;13.70;9.18;;;;;;;;;;5000706;28;20224;-65
2022/06/23 04:05:05;;;;;;;14.70;9.25;;;;;;;;;;5016495;28;20230;-64
2022/06/23 04:07:33;;;;;;;16.08;9.48;;;;;;;;;;5001419;28;20217;-65
2022/06/23 04:10:06;;;;;;;14.02;8.93;;;;;;;;;;5000878;28;20231;-65
2022/06/23 04:12:31;;;;;;;14.35;8.85;;;;;;;;;;5009754;28;20240;-65
2022/06/23 04:15:02;;;;;;;15.80;9.70;;;;;;;;;;4993646;28;20699;-66
2022/06/23 04:17:29;;;;;;;13.55;8.75;;;;;;;;;;5010044;28;20589;-65
2022/06/23 04:19:55;;;;;;;14.25;9.00;;;;;;;;;;5001617;28;20205;-65
2022/06/23 04:22:24;;;;;;;12.38;8.95;;;;;;;;;;5015899;28;20239;-65
2022/06/23 04:24:50;;;;;;;17.00;8.45;;;;;;;;;;5001957;28;20238;-66
2022/06/23 04:27:18;;;;;;;14.18;8.65;;;;;;;;;;5001511;28;20223;-65
2022/06/23 04:29:44;;;;;;;15.20;8.90;;;;;;;;;;5016488;28;20212;-64
2022/06/23 04:32:13;;;;;;;15.25;9.25;;;;;;;;;;4998739;28;20224;-64
2022/06/23 04:34:49;;;;;;;16.08;8.55;;;;;;;;;;4992935;28;20218;-67
2022/06/23 04:37:20;;;;;;;14.43;9.40;;;;;;;;;;5007790;28;20461;-62
2022/06/23 04:39:45;;;;;;;15.93;9.30;;;;;;;;;;4994384;28;20274;-67
2022/06/23 04:42:13;;;;;;;13.98;8.23;;;;;;;;;;5015484;28;20228;-64
2022/06/23 04:44:43;;;;;;;12.50;8.30;;;;;;;;;;4997495;28;20213;-67
2022/06/23 04:47:12;;;;;;;13.18;8.68;;;;;;;;;;4999038;28;20201;-65
2022/06/23 04:49:46;;;;;;;15.05;9.23;;;;;;;;;;4996940;28;20215;-65
2022/06/23 04:52:13;;;;;;;14.52;9.23;;;;;;;;;;4998220;28;20582;-66
2022/06/23 04:54:43;;;;;;;14.05;8.20;;;;;;;;;;4997487;28;20209;-66
2022/06/23 04:57:10;;;;;;;15.18;8.00;;;;;;;;;;4989595;28;20236;-65
2022/06/23 04:59:38;;;;;;;13.48;7.72;;;;;;;;;;4989188;28;20228;-63
2022/06/23 05:02:22;;;;;;;14.70;8.23;;;;;;;;;;4974223;28;20635;-63
2022/06/23 05:04:51;;;;;;;13.18;7.97;;;;;;;;;;4981393;28;20221;-66
2022/06/23 05:07:18;;;;;;;13.45;7.70;;;;;;;;;;4982873;28;20216;-65
2022/06/23 05:09:43;;;;;;;12.52;7.82;;;;;;;;;;4981514;28;20600;-66
2022/06/23 05:12:14;;;;;;;13.80;7.60;;;;;;;;;;4981419;28;20914;-66
2022/06/23 05:14:45;;;;;;;11.05;7.10;;;;;;;;;;4982753;28;20201;-69
2022/06/23 05:17:13;;;;;;;11.57;8.05;;;;;;;;;;4983157;28;20347;-68
2022/06/23 05:19:38;;;;;;;14.57;8.98;;;;;;;;;;4974919;28;20432;-70
2022/06/23 05:22:12;;;;;;;13.57;7.68;;;;;;;;;;4973548;28;20561;-69
2022/06/23 05:24:39;;;;;;;11.90;7.35;;;;;;;;;;4974752;28;20217;-70
2022/06/23 05:27:05;;;;;;;12.70;8.23;;;;;;;;;;5011944;28;20216;-70
2022/06/23 05:29:31;;;;;;;12.52;7.22;;;;;;;;;;4998197;28;20210;-67
2022/06/23 05:31:58;;;;;;;13.00;8.00;;;;;;;;;;5006683;28;20585;-68
2022/06/23 05:34:25;;;;;;;11.20;7.45;;;;;;;;;;5010706;28;20531;-66
2022/06/23 05:36:56;;;;;;;12.93;7.60;;;;;;;;;;5010173;28;20212;-65
2022/06/23 05:39:22;;;;;;;12.38;8.05;;;;;;;;;;4993649;28;20562;-66
2022/06/23 05:41:48;;;;;;;13.02;8.02;;;;;;;;;;4989792;28;20248;-65
2022/06/23 05:44:16;;;;;;;12.57;7.95;;;;;;;;;;4999662;28;20212;-65
2022/06/23 05:46:42;;;;;;;14.23;8.30;;;;;;;;;;5008964;28;20236;-65
2022/06/23 05:49:16;;;;;;;14.63;8.27;;;;;;;;;;5010303;28;20253;-65
2022/06/23 05:51:44;;;;;;;13.75;8.48;;;;;;;;;;5009157;28;20215;-65
2022/06/23 05:54:11;;;;;;;13.18;8.10;;;;;;;;;;5009365;28;20639;-65
2022/06/23 05:56:44;;;;;;;11.05;7.35;;;;;;;;;;4997802;28;20251;-65
2022/06/23 05:59:16;;;;;;;13.30;8.80;;;;;;;;;;5009604;28;20618;-65
2022/06/23 06:01:45;;;;;;;11.98;7.50;;;;;;;;;;5009201;28;20224;-65
2022/06/23 06:04:13;;;;;;;10.98;8.25;;;;;;;;;;5010715;28;20228;-65
2022/06/23 06:06:39;;;;;;;11.10;7.85;;;;;;;;;;5011727;28;20223;-65
2022/06/23 06:11:50;;;;;;;10.93;8.15;;;;;;;;;;5014140;28;20722;-65
2022/06/23 06:14:16;;;;;;;14.70;7.82;;;;;;;;;;5011406;28;20204;-65
2022/06/23 06:16:42;;;;;;;11.20;8.02;;;;;;;;;;5012456;28;20208;-65
2022/06/23 06:19:09;;;;;;;11.45;7.88;;;;;;;;;;5013117;28;20735;-65
2022/06/23 06:21:35;;;;;;;14.35;7.78;;;;;;;;;;5011651;28;20216;-65
2022/06/23 06:24:00;;;;;;;13.02;8.52;;;;;;;;;;5013813;28;20209;-65
2022/06/23 06:26:29;;;;;;;10.15;7.88;;;;;;;;;;5016370;28;20239;-66
2022/06/23 06:28:55;;;;;;;14.52;8.40;;;;;;;;;;5029344;28;20626;-66
2022/06/23 06:31:31;;;;;;;11.95;7.38;;;;;;;;;;5012239;28;20733;-65
2022/06/23 06:34:09;;;;;;;14.50;7.68;;;;;;;;;;5018795;28;20200;-65
2022/06/23 06:36:39;;;;;;;11.88;7.30;;;;;;;;;;5013339;28;20212;-65
2022/06/23 06:39:09;;;;;;;12.07;7.00;;;;;;;;;;5008273;28;20221;-63
2022/06/23 06:41:35;;;;;;;13.07;6.97;;;;;;;;;;4993063;28;20253;-64
2022/06/23 06:44:00;;;;;;;12.02;7.30;;;;;;;;;;5000670;28;20247;-64
2022/06/23 06:46:25;;;;;;;11.63;6.97;;;;;;;;;;5012818;28;20319;-64
2022/06/23 06:48:51;;;;;;;9.70;6.80;;;;;;;;;;5012821;28;20626;-66
2022/06/23 06:51:17;;;;;;;13.48;7.55;;;;;;;;;;5012700;28;20216;-69
2022/06/23 06:53:43;;;;;;;11.57;7.13;;;;;;;;;;5013274;28;20616;-68
2022/06/23 06:56:15;;;;;;;10.68;6.70;;;;;;;;;;5009701;28;20208;-66
2022/06/23 06:58:50;;;;;;;11.43;7.28;;;;;;;;;;5000670;28;20213;-70
2022/06/23 07:01:18;;;;;;;16.13;7.82;;;;;;;;;;4992764;28;20528;-68
2022/06/23 07:03:45;;;;;;;8.98;6.95;;;;;;;;;;4992688;28;20257;-68
2022/06/23 07:06:26;;;;;;;9.45;6.72;;;;;;;;;;4991726;28;20217;-73
2022/06/23 07:08:55;;;;;;;10.52;6.97;;;;;;;;;;4993296;28;20201;-66
2022/06/23 07:11:21;;;;;;;11.52;6.72;;;;;;;;;;4990686;28;20221;-65
2022/06/23 07:13:59;;;;;;;11.75;6.25;;;;;;;;;;4991860;28;20221;-66
2022/06/23 07:16:33;;;;;;;12.38;6.93;;;;;;;;;;4990199;28;20213;-65
2022/06/23 07:19:09;;;;;;;9.00;5.82;;;;;;;;;;4993279;28;20248;-66
2022/06/23 07:21:38;;;;;;;12.73;6.30;;;;;;;;;;4992494;28;20217;-66
2022/06/23 07:24:05;;;;;;;11.65;5.97;;;;;;;;;;4991952;28;20292;-66
2022/06/23 07:26:35;;;;;;;9.48;5.97;;;;;;;;;;4992941;28;20209;-66
2022/06/23 07:29:03;;;;;;;10.77;6.43;;;;;;;;;;4992820;28;20213;-64
2022/06/23 07:31:30;;;;;;;11.77;6.30;;;;;;;;;;5003093;28;20209;-65
2022/06/23 07:33:57;;;;;;;10.35;6.13;;;;;;;;;;5012300;28;20219;-65
2022/06/23 07:36:25;;;;;;;8.65;5.75;;;;;;;;;;5011824;28;20220;-66
2022/06/23 07:38:52;;;;;;;10.65;6.03;;;;;;;;;;5009814;28;20687;-66
2022/06/23 07:41:21;;;;;;;11.07;5.65;;;;;;;;;;5012030;28;20212;-66
2022/06/23 07:43:49;;;;;;;9.48;5.63;;;;;;;;;;5005876;28;20688;-66
2022/06/23 07:46:15;;;;;;;9.77;6.22;;;;;;;;;;4990259;28;20224;-66
2022/06/23 07:48:40;;;;;;;12.35;6.63;;;;;;;;;;4992330;28;20213;-66
2022/06/23 07:51:06;;;;;;;11.57;6.03;;;;;;;;;;4990587;28;20221;-65
2022/06/23 07:53:33;;;;;;;12.90;5.88;;;;;;;;;;4991685;28;20255;-65
2022/06/23 07:56:00;;;;;;;10.40;6.20;;;;;;;;;;4992704;28;20216;-65
2022/06/23 07:58:26;;;;;;;11.35;6.20;;;;;;;;;;4998739;28;20244;-65
2022/06/23 08:00:56;;;;;;;8.55;5.88;;;;;;;;;;4992046;28;20719;-66
2022/06/23 08:03:25;;;;;;;11.45;6.38;;;;;;;;;;4990105;28;20763;-66
2022/06/23 08:05:51;;;;;;;10.38;6.30;;;;;;;;;;4990219;28;20357;-65
2022/06/23 08:08:18;;;;;;;10.02;6.40;;;;;;;;;;4990391;28;20213;-64
2022/06/23 08:10:43;;;;;;;10.15;5.57;;;;;;;;;;4991123;28;20256;-65
2022/06/23 08:13:11;;;;;;;8.80;5.85;;;;;;;;;;4989732;28;20220;-65
2022/06/23 08:18:26;;;;;;;12.82;6.88;;;;;;;;;;4991507;28;20224;-65
2022/06/23 08:20:54;;;;;;;9.90;5.60;;;;;;;;;;4990331;28;20205;-66
2022/06/23 08:23:20;;;;;;;11.13;6.35;;;;;;;;;;4991459;28;20273;-66
2022/06/23 08:25:45;;;;;;;12.48;6.07;;;;;;;;;;4990873;28;20272;-65
2022/06/23 08:28:11;;;;;;;9.23;4.70;;;;;;;;;;4990704;28;20244;-65
2022/06/23 08:30:36;;;;;;;12.07;6.43;;;;;;;;;;4997026;28;20579;-65
2022/06/23 08:33:02;;;;;;;8.93;5.40;;;;;;;;;;5011303;28;20220;-65
2022/06/23 08:35:39;;;;;;;12.75;6.07;;;;;;;;;;5011254;28;20300;-65
2022/06/23 08:38:06;;;;;;;10.80;5.63;;;;;;;;;;5011406;28;20204;-64
2022/06/23 08:40:34;;;;;;;12.32;5.53;;;;;;;;;;5011674;28;20648;-65
2022/06/23 08:43:18;;;;;;;9.32;5.75;;;;;;;;;;5009227;28;20796;-65
2022/06/23 08:45:49;;;;;;;12.27;5.40;;;;;;;;;;4997442;28;20244;-66
2022/06/23 08:48:22;;;;;;;8.82;5.40;;;;;;;;;;4991076;28;20766;-65
2022/06/23 08:50:47;;;;;;;11.68;6.85;;;;;;;;;;4992132;28;20300;-66
2022/06/23 08:53:15;;;;;;;15.02;6.40;;;;;;;;;;4991527;28;20296;-65
2022/06/23 08:55:44;;;;;;;12.65;6.45;;;;;;;;;;4989505;28;20300;-65
2022/06/23 08:58:13;;;;;;;10.88;5.75;;;;;;;;;;4989671;28;20209;-65
2022/06/23 09:00:47;;;;;;;14.05;6.20;;;;;;;;;;4991960;28;20209;-66
2022/06/23 09:03:14;;;;;;;9.63;5.43;;;;;;;;;;4989307;28;20329;-66
2022/06/23 09:05:39;;;;;;;10.70;5.47;;;;;;;;;;4990770;28;20696;-66
2022/06/23 09:08:16;;;;;;;14.82;6.32;;;;;;;;;;4991279;28;20213;-66
2022/06/23 09:10:44;;;;;;;8.95;5.05;;;;;;;;;;4989382;28;20638;-66
2022/06/23 09:13:13;;;;;;;11.40;5.85;;;;;;;;;;5027196;28;20250;-65
2022/06/23 09:15:38;;;;;;;10.60;5.97;;;;;;;;;;5029789;28;20212;-66
2022/06/23 09:18:08;;;;;;;8.88;5.68;;;;;;;;;;5011542;28;20220;-67
2022/06/23 09:20:39;;;;;;;10.48;4.97;;;;;;;;;;4993390;28;20209;-66
2022/06/23 09:23:19;;;;;;;11.73;6.10;;;;;;;;;;4989011;28;20240;-68
2022/06/23 09:25:45;;;;;;;11.20;5.97;;;;;;;;;;4991689;28;20209;-63
2022/06/23 09:28:16;;;;;;;11.70;5.93;;;;;;;;;;4991291;28;20279;-62
2022/06/23 09:30:56;;;;;;;12.65;5.78;;;;;;;;;;4998155;28;20217;-63
2022/06/23 09:33:27;;;;;;;11.60;5.68;;;;;;;;;;5010269;28;20208;-63
2022/06/23 09:35:55;;;;;;;14.73;5.40;;;;;;;;;;5011125;28;20244;-63
2022/06/23 09:38:37;;;;;;;15.23;5.63;;;;;;;;;;5011157;28;20221;-63
2022/06/23 09:41:06;;;;;;;12.05;4.90;;;;;;;;;;5014462;28;20216;-63
2022/06/23 09:43:36;;;;;;;10.70;4.15;;;;;;;;;;5009010;28;20225;-62
2022/06/23 09:46:19;;;;;;;9.35;4.78;;;;;;;;;;4992032;28;20216;-62
2022/06/23 09:48:48;;;;;;;10.93;4.45;;;;;;;;;;4995343;28;20213;-63
2022/06/23 09:51:18;;;;;;;8.60;4.45;;;;;;;;;;4991287;28;20251;-63
2022/06/23 09:53:45;;;;;;;10.02;5.97;;;;;;;;;;4995078;28;20240;-63
2022/06/23 09:56:14;;;;;;;12.50;4.70;;;;;;;;;;4994207;28;20703;-63
2022/06/23 09:58:41;;;;;;;10.77;4.63;;;;;;;;;;4992884;28;20240;-63
2022/06/23 10:01:11;;;;;;;8.20;3.10;;;;;;;;;;4994082;28;20212;-63
2022/06/23 10:03:47;;;;;;;7.75;3.38;;;;;;;;;;4993688;28;20225;-63
2022/06/23 10:06:19;;;;;;;8.48;3.60;;;;;;;;;;4993917;28;20220;-63
2022/06/23 10:08:49;;;;;;;10.70;4.05;;;;;;;;;;5002195;28;20239;-63
2022/06/23 10:11:31;;;;;;;8.25;3.17;;;;;;;;;;5012363;28;20212;-62
2022/06/23 10:14:00;;;;;;;11.38;3.83;;;;;;;;;;5012012;28;20212;-62
2022/06/23 10:16:30;;;;;;;11.32;3.40;;;;;;;;;;5011198;28;20220;-62
2022/06/23 10:19:06;;;;;;;8.50;3.30;;;;;;;;;;5014197;28;20208;-62
2022/06/23 10:21:37;;;;;;;8.70;3.50;;;;;;;;;;5001086;28;20276;-63
2022/06/23 10:24:05;;;;;;;7.47;3.10;;;;;;;;;;4992709;28;20692;-63
2022/06/23 10:26:40;;;;;;;10.02;4.15;;;;;;;;;;4993823;28;20291;-62
2022/06/23 10:29:09;;;;;;;10.63;3.53;;;;;;;;;;4994091;28;20217;-63
2022/06/23 10:31:35;;;;;;;10.77;3.42;;;;;;;;;;5004693;28;20227;-62
2022/06/23 10:34:06;;;;;;;7.45;3.47;;;;;;;;;;5012307;28;20209;-63
2022/06/23 10:36:37;;;;;;;9.07;3.10;;;;;;;;;;5027930;28;20316;-62
2022/06/23 10:39:07;;;;;;;8.75;3.60;;;;;;;;;;5007982;28;20722;-63
2022/06/23 10:41:33;;;;;;;9.38;3.35;;;;;;;;;;5011828;28;20313;-62
2022/06/23 10:44:00;;;;;;;9.90;3.67;;;;;;;;;;5005683;28;20241;-63
2022/06/23 10:46:35;;;;;;;10.45;3.50;;;;;;;;;;4992436;28;20221;-62
2022/06/23 10:49:00;;;;;;;10.43;3.75;;;;;;;;;;4991894;28;20225;-63
2022/06/23 10:51:30;;;;;;;8.18;3.25;;;;;;;;;;5001039;28;20283;-63
2022/06/23 10:53:56;;;;;;;9.40;3.83;;;;;;;;;;5007727;28;20651;-63
2022/06/23 10:56:28;;;;;;;9.45;3.70;;;;;;;;;;5011814;28;20220;-63
2022/06/23 10:58:58;;;;;;;11.23;3.65;;;;;;;;;;5009546;28;20216;-62
2022/06/23 11:01:31;;;;;;;6.32;3.10;;;;;;;;;;5010549;28;20219;-63
2022/06/23 11:04:04;;;;;;;9.70;3.13;;;;;;;;;;5013442;28;20236;-63
2022/06/23 11:06:31;;;;;;;6.25;3.25;;;;;;;;;;5012098;28;20212;-62
2022/06/23 11:09:03;;;;;;;8.15;2.72;;;;;;;;;;5012632;28;20259;-63
2022/06/23 11:11:28;;;;;;;7.05;2.65;;;;;;;;;;5012931;28;20209;-63
2022/06/23 11:13:58;;;;;;;6.43;2.55;;;;;;;;;;5013037;28;20320;-63
2022/06/23 11:16:33;;;;;;;7.80;3.00;;;;;;;;;;5007230;28;20213;-63
2022/06/23 11:19:08;;;;;;;8.95;3.05;;;;;;;;;;4993827;28;20216;-62
2022/06/23 11:21:40;;;;;;;8.95;2.90;;;;;;;;;;4991785;28;20671;-62
2022/06/23 11:24:16;;;;;;;5.65;2.80;;;;;;;;;;4992147;28;20225;-63
2022/06/23 11:26:42;;;;;;;6.30;2.60;;;;;;;;;;4992181;28;20295;-62
2022/06/23 11:29:12;;;;;;;8.40;3.75;;;;;;;;;;4992960;28;20213;-62
2022/06/23 11:31:37;;;;;;;7.13;2.78;;;;;;;;;;5004092;28;20232;-62
2022/06/23 11:34:10;;;;;;;9.38;3.10;;;;;;;;;;5012405;28;20278;-62
2022/06/23 11:36:43;;;;;;;7.55;2.97;;;;;;;;;;5010698;28;20209;-62
2022/06/23 11:39:09;;;;;;;6.57;2.53;;;;;;;;;;5005891;28;20687;-62
2022/06/23 11:41:40;;;;;;;9.23;3.20;;;;;;;;;;4994545;28;20221;-63
2022/06/23 11:44:21;;;;;;;10.55;2.70;;;;;;;;;;4999454;28;20220;-63
2022/06/23 11:46:55;;;;;;;7.78;2.63;;;;;;;;;;5012255;28;20255;-62
2022/06/23 11:49:21;;;;;;;6.75;2.70;;;;;;;;;;5011955;28;20243;-62
2022/06/23 11:52:00;;;;;;;6.00;2.85;;;;;;;;;;5011680;28;20209;-62
2022/06/23 11:54:45;;;;;;;7.55;3.25;;;;;;;;;;5012487;28;20672;-62
2022/06/23 11:57:14;;;;;;;6.78;3.47;;;;;;;;;;5011957;28;20633;-62
2022/06/23 11:59:49;;;;;;;12.18;3.30;;;;;;;;;;5011274;28;20231;-62
2022/06/23 12:02:14;;;;;;;8.43;2.70;;;;;;;;;;5009682;28;20230;-62
2022/06/23 12:04:40;;;;;;;9.20;3.05;;;;;;;;;;5011430;28;20315;-62
2022/06/23 12:07:05;;;;;;;7.90;2.88;;;;;;;;;;5010573;28;20303;-62
2022/06/23 12:09:35;;;;;;;10.20;2.97;;;;;;;;;;5012216;28;20215;-62
2022/06/23 12:12:01;;;;;;;9.00;2.80;;;;;;;;;;5010971;28;20216;-62
2022/06/23 12:14:26;;;;;;;9.63;2.95;;;;;;;;;;5011655;28;20216;-62
2022/06/23 12:16:54;;;;;;;11.38;3.40;;;;;;;;;;5012118;28;20212;-62
2022/06/23 12:19:20;;;;;;;9.93;3.00;;;;;;;;;;5010924;28;20221;-62
2022/06/23 12:21:50;;;;;;;6.47;2.60;;;;;;;;;;5011033;28;20219;-62
2022/06/23 12:24:21;;;;;;;7.40;2.85;;;;;;;;;;5010398;28;20227;-62
2022/06/23 12:26:48;;;;;;;11.10;2.78;;;;;;;;;;5009988;28;20227;-62
2022/06/23 12:29:16;;;;;;;13.35;2.97;;;;;;;;;;5010038;28;20258;-62
2022/06/23 12:31:51;;;;;;;10.15;2.75;;;;;;;;;;4997923;28;20290;-63
2022/06/23 12:34:26;;;;;;;8.60;2.90;;;;;;;;;;4989442;28;20212;-63
2022/06/23 12:36:55;;;;;;;9.52;3.03;;;;;;;;;;4974491;28;20216;-62
2022/06/23 12:39:26;;;;;;;11.27;3.30;;;;;;;;;;5007952;28;20220;-63
2022/06/23 12:41:52;;;;;;;8.98;3.00;;;;;;;;;;4990083;28;20233;-63
2022/06/23 12:44:25;;;;;;;10.63;2.55;;;;;;;;;;5000556;28;20209;-62
2022/06/23 12:46:53;;;;;;;9.00;2.80;;;;;;;;;;5010161;28;20577;-62
2022/06/23 12:49:34;;;;;;;6.97;2.17;;;;;;;;;;5009785;28;20684;-62
2022/06/23 12:51:59;;;;;;;8.32;3.08;;;;;;;;;;5010173;28;20216;-63
2022/06/23 12:54:25;;;;;;;5.88;2.65;;;;;;;;;;5010461;28;20212;-63
2022/06/23 12:56:54;;;;;;;6.20;2.50;;;;;;;;;;5011931;28;20233;-62
2022/06/23 12:59:29;;;;;;;8.57;2.80;;;;;;;;;;5011016;28;20676;-63
2022/06/23 13:01:58;;;;;;;11.07;2.60;;;;;;;;;;5009392;28;20923;-63
2022/06/23 13:04:31;;;;;;;7.22;2.92;;;;;;;;;;5009401;28;20227;-63
2022/06/23 13:07:08;;;;;;;11.77;2.85;;;;;;;;;;5010276;28;20667;-63
2022/06/23 13:09:39;;;;;;;8.15;3.03;;;;;;;;;;5009546;28;20204;-63
2022/06/23 13:12:08;;;;;;;8.38;2.70;;;;;;;;;;5012044;28;20243;-63
2022/06/23 13:14:40;;;;;;;7.85;3.75;;;;;;;;;;5013613;28;20238;-63
2022/06/23 13:17:08;;;;;;;12.15;3.33;;;;;;;;;;5014221;28;20232;-63
2022/06/23 13:19:34;;;;;;;10.82;3.28;;;;;;;;;;5013967;28;20204;-62
2022/06/23 13:22:04;;;;;;;9.63;3.00;;;;;;;;;;5013466;28;20745;-62
2022/06/23 13:24:31;;;;;;;10.68;3.42;;;;;;;;;;5015187;28;20220;-63
2022/06/23 13:26:56;;;;;;;11.23;3.35;;;;;;;;;;5015218;28;20232;-63
2022/06/23 13:29:22;;;;;;;12.95;3.72;;;;;;;;;;5013680;28;20271;-63
2022/06/23 13:31:49;;;;;;;8.73;2.92;;;;;;;;;;4998957;28;20568;-62
2022/06/23 13:34:18;;;;;;;9.82;3.65;;;;;;;;;;4993938;28;20240;-62
2022/06/23 13:36:46;;;;;;;9.63;2.90;;;;;;;;;;4994959;28;20241;-63
2022/06/23 13:39:17;;;;;;;9.00;3.08;;;;;;;;;;5002041;28;20575;-62
2022/06/23 13:41:45;;;;;;;9.88;2.60;;;;;;;;;;4995288;28;20225;-62
2022/06/23 13:44:16;;;;;;;11.95;2.85;;;;;;;;;;5001962;28;20228;-63
2022/06/23 13:46:42;;;;;;;11.65;3.08;;;;;;;;;;5013658;28;20205;-62
2022/06/23 13:49:17;;;;;;;7.45;2.80;;;;;;;;;;5014704;28;20235;-62
2022/06/23 13:51:46;;;;;;;11.25;3.25;;;;;;;;;;5013064;28;20211;-63
2022/06/23 13:54:20;;;;;;;11.00;2.95;;;;;;;;;;5014197;28;20212;-63
2022/06/23 13:56:47;;;;;;;12.07;3.00;;;;;;;;;;5014551;28;20207;-63
2022/06/23 13:59:14;;;;;;;9.13;2.80;;;;;;;;;;5013159;28;20253;-63
2022/06/23 14:01:42;;;;;;;11.00;3.15;;;;;;;;;;5014374;28;20220;-62
2022/06/23 14:04:14;;;;;;;10.13;3.25;;;;;;;;;;5014193;28;20722;-62
2022/06/23 14:06:41;;;;;;;11.45;2.92;;;;;;;;;;5013159;28;20236;-62
2022/06/23 14:09:12;;;;;;;11.98;2.85;;;;;;;;;;5012773;28;20683;-62
2022/06/23 14:11:38;;;;;;;8.45;2.80;;;;;;;;;;5013675;28;20220;-62
2022/06/23 14:14:17;;;;;;;7.15;2.92;;;;;;;;;;5013961;28;20244;-63
2022/06/23 14:16:43;;;;;;;7.13;3.05;;;;;;;;;;5013155;28;20212;-63
2022/06/23 14:19:13;;;;;;;9.73;3.45;;;;;;;;;;5012677;28;20299;-63
2022/06/23 14:21:45;;;;;;;8.57;3.08;;;;;;;;;;5013692;28;20722;-62
2022/06/23 14:24:20;;;;;;;12.63;3.25;;;;;;;;;;5011678;28;20220;-62
2022/06/23 14:26:51;;;;;;;9.90;3.20;;;;;;;;;;5013675;28;20624;-62
2022/06/23 14:29:33;;;;;;;12.70;2.70;;;;;;;;;;5012694;28;20239;-62
2022/06/23 14:32:01;;;;;;;8.73;3.10;;;;;;;;;;4996526;28;20221;-62
2022/06/23 14:34:35;;;;;;;12.23;3.10;;;;;;;;;;5000269;28;20205;-62
2022/06/23 14:37:10;;;;;;;9.45;2.70;;;;;;;;;;4994523;28;20209;-62
2022/06/23 14:39:39;;;;;;;7.78;2.83;;;;;;;;;;4993436;28;20208;-62
2022/06/23 14:42:23;;;;;;;12.13;3.70;;;;;;;;;;4992507;28;20312;-62
2022/06/23 14:44:54;;;;;;;8.35;2.80;;;;;;;;;;5008346;28;20208;-62
2022/06/23 14:47:25;;;;;;;8.82;2.78;;;;;;;;;;5012061;28;20221;-62
2022/06/23 14:50:12;;;;;;;10.95;3.05;;;;;;;;;;5012095;28;20213;-62
2022/06/23 14:52:43;;;;;;;9.18;2.97;;;;;;;;;;5012657;28;20582;-62
2022/06/23 14:55:14;;;;;;;7.03;2.72;;;;;;;;;;5011777;28;20212;-62